createdAt,value
2022-09-20T00:00:36.468Z,1001.64
2022-09-20T00:01:36.541Z,1001.61
2022-09-20T00:02:36.446Z,1001.64
2022-09-20T00:03:36.450Z,1001.63
2022-09-20T00:04:36.491Z,1001.65
2022-09-20T00:05:36.429Z,1001.68
2022-09-20T00:06:36.453Z,1001.59
2022-09-20T00:07:36.415Z,1001.66
2022-09-20T00:08:36.407Z,1001.58
2022-09-20T00:09:36.399Z,1001.65
2022-09-20T00:10:36.392Z,1001.63
2022-09-20T00:11:36.414Z,1001.66
2022-09-20T00:12:36.372Z,1001.66
2022-09-20T00:13:36.371Z,1001.64
2022-09-20T00:14:36.358Z,1001.69
2022-09-20T00:15:36.384Z,1001.75
2022-09-20T00:16:36.428Z,1001.74
2022-09-20T00:17:36.334Z,1001.72
2022-09-20T00:18:36.331Z,1001.73
2022-09-20T00:19:36.322Z,1001.78
2022-09-20T00:20:36.380Z,1001.70
2022-09-20T00:21:36.337Z,1001.85
2022-09-20T00:22:36.287Z,1001.74
2022-09-20T00:23:36.281Z,1001.81
2022-09-20T00:24:36.268Z,1001.84
2022-09-20T00:25:36.329Z,1001.90
2022-09-20T00:26:36.260Z,1001.90
2022-09-20T00:27:36.250Z,1001.89
2022-09-20T00:28:36.237Z,1001.86
2022-09-20T00:29:36.234Z,1001.83
2022-09-20T00:30:36.254Z,1001.82
2022-09-20T00:31:36.257Z,1001.84
2022-09-20T00:32:36.209Z,1001.83
2022-09-20T00:33:36.350Z,1001.87
2022-09-20T00:34:36.193Z,1001.80
2022-09-20T00:35:36.182Z,1001.85
2022-09-20T00:36:36.213Z,1001.89
2022-09-20T00:37:36.168Z,1001.84
2022-09-20T00:38:36.168Z,1001.93
2022-09-20T00:39:36.145Z,1001.81
2022-09-20T00:40:36.242Z,1001.89
2022-09-20T00:41:36.169Z,1001.91
2022-09-20T00:42:36.127Z,1001.92
2022-09-20T00:43:36.123Z,1001.84
2022-09-20T00:44:36.110Z,1001.85
2022-09-20T00:45:36.181Z,1001.83
2022-09-20T00:46:36.134Z,1001.85
2022-09-20T00:47:36.090Z,1001.87
2022-09-20T00:48:36.079Z,1001.93
2022-09-20T00:49:36.062Z,1001.88
2022-09-20T00:50:36.058Z,1001.86
2022-09-20T00:51:36.077Z,1001.93
2022-09-20T00:52:36.050Z,1001.88
2022-09-20T00:53:36.035Z,1001.89
2022-09-20T00:54:36.022Z,1001.87
2022-09-20T00:55:36.017Z,1001.90
2022-09-20T00:56:36.110Z,1001.92
2022-09-20T00:57:36.005Z,1001.88
2022-09-20T00:58:35.994Z,1001.96
2022-09-20T00:59:35.980Z,1001.88
2022-09-20T01:00:35.974Z,1001.91
2022-09-20T01:01:36.039Z,1001.90
2022-09-20T01:02:36.011Z,1001.92
2022-09-20T01:03:35.952Z,1001.91
2022-09-20T01:04:35.940Z,1001.91
2022-09-20T01:05:35.934Z,1001.85
2022-09-20T01:06:35.962Z,1001.93
2022-09-20T01:07:35.920Z,1001.97
2022-09-20T01:08:35.917Z,1001.92
2022-09-20T01:09:35.910Z,1001.98
2022-09-20T01:10:35.897Z,1001.91
2022-09-20T01:11:35.917Z,1001.94
2022-09-20T01:12:35.876Z,1001.86
2022-09-20T01:13:35.876Z,1001.82
2022-09-20T01:14:35.862Z,1001.86
2022-09-20T01:15:35.855Z,1001.83
2022-09-20T01:16:35.960Z,1001.85
2022-09-20T01:17:35.843Z,1001.86
2022-09-20T01:18:35.828Z,1001.92
2022-09-20T01:19:35.819Z,1001.90
2022-09-20T01:20:35.815Z,1001.83
2022-09-20T01:21:35.840Z,1001.78
2022-09-20T01:22:35.803Z,1001.86
2022-09-20T01:23:35.797Z,1001.83
2022-09-20T01:24:35.781Z,1001.86
2022-09-20T01:25:35.773Z,1001.81
2022-09-20T01:26:35.799Z,1001.76
2022-09-20T01:27:35.757Z,1001.80
2022-09-20T01:28:35.753Z,1001.80
2022-09-20T01:29:35.735Z,1001.82
2022-09-20T01:30:35.731Z,1001.78
2022-09-20T01:31:35.801Z,1001.76
2022-09-20T01:32:35.715Z,1001.78
2022-09-20T01:33:35.707Z,1001.75
2022-09-20T01:34:35.704Z,1001.73
2022-09-20T01:35:35.709Z,1001.78
2022-09-20T01:36:35.715Z,1001.77
2022-09-20T01:37:35.686Z,1001.77
2022-09-20T01:38:35.670Z,1001.80
2022-09-20T01:39:35.663Z,1001.84
2022-09-20T01:40:35.699Z,1001.83
2022-09-20T01:41:35.670Z,1001.80
2022-09-20T01:42:35.652Z,1001.78
2022-09-20T01:43:35.623Z,1001.78
2022-09-20T01:44:35.608Z,1001.78
2022-09-20T01:45:35.678Z,1001.83
2022-09-20T01:46:35.628Z,1001.75
2022-09-20T01:47:35.587Z,1001.76
2022-09-20T01:48:35.575Z,1001.82
2022-09-20T01:49:35.573Z,1001.80
2022-09-20T01:50:35.564Z,1001.76
2022-09-20T01:51:35.582Z,1001.81
2022-09-20T01:52:35.542Z,1001.75
2022-09-20T01:53:35.536Z,1001.74
2022-09-20T01:54:35.529Z,1001.76
2022-09-20T01:55:35.524Z,1001.80
2022-09-20T01:56:35.539Z,1001.81
2022-09-20T01:57:35.501Z,1001.78
2022-09-20T01:58:35.503Z,1001.80
2022-09-20T01:59:35.488Z,1001.79
2022-09-20T02:00:35.491Z,1001.88
2022-09-20T02:01:35.560Z,1001.87
2022-09-20T02:02:35.499Z,1001.93
2022-09-20T02:03:35.458Z,1001.89
2022-09-20T02:04:35.449Z,1001.84
2022-09-20T02:05:35.436Z,1001.83
2022-09-20T02:06:35.460Z,1001.84
2022-09-20T02:07:35.428Z,1001.82
2022-09-20T02:08:35.427Z,1001.82
2022-09-20T02:09:35.407Z,1001.79
2022-09-20T02:10:35.405Z,1001.86
2022-09-20T02:11:35.423Z,1001.86
2022-09-20T02:12:35.384Z,1001.87
2022-09-20T02:13:35.376Z,1001.80
2022-09-20T02:14:35.370Z,1001.80
2022-09-20T02:15:35.357Z,1001.83
2022-09-20T02:16:35.457Z,1001.83
2022-09-20T02:17:35.353Z,1001.81
2022-09-20T02:18:35.330Z,1001.81
2022-09-20T02:19:35.333Z,1001.80
2022-09-20T02:20:35.317Z,1001.82
2022-09-20T02:21:35.341Z,1001.84
2022-09-20T02:22:35.301Z,1001.86
2022-09-20T02:23:35.289Z,1001.77
2022-09-20T02:24:35.283Z,1001.86
2022-09-20T02:25:35.276Z,1001.86
2022-09-20T02:26:35.296Z,1001.90
2022-09-20T02:27:35.257Z,1001.83
2022-09-20T02:28:35.258Z,1001.80
2022-09-20T02:29:35.243Z,1001.80
2022-09-20T02:30:35.235Z,1001.82
2022-09-20T02:31:35.320Z,1001.83
2022-09-20T02:32:35.221Z,1001.81
2022-09-20T02:33:35.209Z,1001.79
2022-09-20T02:34:35.203Z,1001.83
2022-09-20T02:35:35.200Z,1001.81
2022-09-20T02:36:35.227Z,1001.74
2022-09-20T02:37:35.178Z,1001.82
2022-09-20T02:38:35.172Z,1001.86
2022-09-20T02:39:35.163Z,1001.79
2022-09-20T02:40:35.224Z,1001.83
2022-09-20T02:41:35.177Z,1001.79
2022-09-20T02:42:35.144Z,1001.83
2022-09-20T02:43:35.130Z,1001.82
2022-09-20T02:44:35.125Z,1001.82
2022-09-20T02:45:35.222Z,1001.75
2022-09-20T02:46:35.145Z,1001.81
2022-09-20T02:47:35.101Z,1001.79
2022-09-20T02:48:35.088Z,1001.79
2022-09-20T02:49:35.078Z,1001.82
2022-09-20T02:50:35.074Z,1001.81
2022-09-20T02:51:35.098Z,1001.83
2022-09-20T02:52:35.053Z,1001.88
2022-09-20T02:53:35.052Z,1001.85
2022-09-20T02:54:35.042Z,1001.91
2022-09-20T02:55:35.036Z,1001.90
2022-09-20T02:56:35.056Z,1001.89
2022-09-20T02:57:35.019Z,1001.91
2022-09-20T02:58:35.019Z,1001.95
2022-09-20T02:59:35.002Z,1001.88
2022-09-20T03:00:34.994Z,1001.88
2022-09-20T03:01:35.036Z,1001.91
2022-09-20T03:02:35.061Z,1001.88
2022-09-20T03:03:34.960Z,1001.91
2022-09-20T03:04:34.965Z,1001.91
2022-09-20T03:05:34.949Z,1001.92
2022-09-20T03:06:34.944Z,1001.93
2022-09-20T03:07:34.961Z,1001.95
2022-09-20T03:08:34.932Z,1001.86
2022-09-20T03:09:34.909Z,1001.87
2022-09-20T03:10:34.908Z,1001.89
2022-09-20T03:11:34.899Z,1001.91
2022-09-20T03:12:34.913Z,1001.90
2022-09-20T03:13:34.881Z,1001.89
2022-09-20T03:14:34.880Z,1001.91
2022-09-20T03:15:34.881Z,1001.85
2022-09-20T03:16:34.901Z,1001.88
2022-09-20T03:17:34.883Z,1001.87
2022-09-20T03:18:34.852Z,1001.87
2022-09-20T03:19:34.837Z,1001.87
2022-09-20T03:20:34.827Z,1001.91
2022-09-20T03:21:34.823Z,1001.86
2022-09-20T03:22:34.825Z,1001.84
2022-09-20T03:23:35.807Z,1001.89
2022-09-20T03:24:34.802Z,1001.90
2022-09-20T03:25:34.788Z,1001.88
2022-09-20T03:26:34.784Z,1001.94
2022-09-20T03:27:34.803Z,1001.96
2022-09-20T03:28:34.766Z,1001.96
2022-09-20T03:29:34.760Z,1001.95
2022-09-20T03:30:34.745Z,1001.98
2022-09-20T03:31:34.821Z,1001.94
2022-09-20T03:32:34.758Z,1001.92
2022-09-20T03:33:34.727Z,1001.99
2022-09-20T03:34:34.715Z,1001.95
2022-09-20T03:35:34.707Z,1001.92
2022-09-20T03:36:34.695Z,1001.99
2022-09-20T03:37:34.723Z,1001.96
2022-09-20T03:38:34.689Z,1001.92
2022-09-20T03:39:34.691Z,1001.98
2022-09-20T03:40:34.723Z,1001.93
2022-09-20T03:41:34.667Z,1001.93
2022-09-20T03:42:34.691Z,1001.95
2022-09-20T03:43:34.651Z,1002.03
2022-09-20T03:44:34.648Z,1001.99
2022-09-20T03:45:34.676Z,1001.94
2022-09-20T03:46:34.628Z,1001.96
2022-09-20T03:47:34.637Z,1001.93
2022-09-20T03:48:34.603Z,1001.98
2022-09-20T03:49:34.601Z,1001.91
2022-09-20T03:50:34.595Z,1001.90
2022-09-20T03:51:34.576Z,1001.96
2022-09-20T03:52:35.604Z,1001.96
2022-09-20T03:53:34.566Z,1001.93
2022-09-20T03:54:34.557Z,1001.99
2022-09-20T03:55:34.547Z,1001.93
2022-09-20T03:56:34.544Z,1001.96
2022-09-20T03:57:34.562Z,1001.93
2022-09-20T03:58:34.528Z,1001.98
2022-09-20T03:59:34.517Z,1002.00
2022-09-20T04:00:34.508Z,1001.94
2022-09-20T04:01:34.545Z,1001.97
2022-09-20T04:02:34.623Z,1001.96
2022-09-20T04:03:34.479Z,1002.02
2022-09-20T04:04:34.474Z,1002.00
2022-09-20T04:05:34.460Z,1001.99
2022-09-20T04:06:34.453Z,1001.92
2022-09-20T04:07:34.473Z,1001.95
2022-09-20T04:08:38.104Z,1001.95
2022-09-20T04:09:36.428Z,1001.98
2022-09-20T04:10:34.412Z,1001.97
2022-09-20T04:11:34.413Z,1001.98
2022-09-20T04:12:34.433Z,1001.98
2022-09-20T04:13:34.402Z,1001.97
2022-09-20T04:14:34.381Z,1002.03
2022-09-20T04:15:34.384Z,1002.02
2022-09-20T04:16:34.448Z,1002.05
2022-09-20T04:17:34.398Z,1001.99
2022-09-20T04:18:34.360Z,1001.99
2022-09-20T04:19:34.348Z,1001.97
2022-09-20T04:20:34.344Z,1001.99
2022-09-20T04:21:34.336Z,1002.03
2022-09-20T04:22:34.350Z,1001.96
2022-09-20T04:23:34.313Z,1001.96
2022-09-20T04:24:34.304Z,1002.00
2022-09-20T04:25:34.298Z,1002.05
2022-09-20T04:26:34.295Z,1002.01
2022-09-20T04:27:34.314Z,1002.03
2022-09-20T04:28:34.272Z,1002.01
2022-09-20T04:29:34.264Z,1001.99
2022-09-20T04:30:34.256Z,1002.04
2022-09-20T04:31:34.295Z,1002.05
2022-09-20T04:32:34.270Z,1002.00
2022-09-20T04:33:34.227Z,1002.04
2022-09-20T04:34:34.210Z,1002.08
2022-09-20T04:35:35.209Z,1002.10
2022-09-20T04:36:34.210Z,1002.14
2022-09-20T04:37:34.225Z,1002.10
2022-09-20T04:38:34.182Z,1002.17
2022-09-20T04:39:34.181Z,1002.12
2022-09-20T04:40:34.224Z,1002.14
2022-09-20T04:41:34.164Z,1002.12
2022-09-20T04:42:34.187Z,1002.17
2022-09-20T04:43:34.141Z,1002.14
2022-09-20T04:44:34.134Z,1002.16
2022-09-20T04:45:34.189Z,1002.15
2022-09-20T04:46:34.119Z,1002.16
2022-09-20T04:47:34.144Z,1002.14
2022-09-20T04:48:34.102Z,1002.15
2022-09-20T04:49:34.098Z,1002.11
2022-09-20T04:50:34.085Z,1002.12
2022-09-20T04:51:34.077Z,1002.12
2022-09-20T04:52:34.063Z,1002.10
2022-09-20T04:53:34.089Z,1002.09
2022-09-20T04:54:34.052Z,1002.14
2022-09-20T04:55:34.050Z,1002.18
2022-09-20T04:56:34.038Z,1002.21
2022-09-20T04:57:34.032Z,1002.13
2022-09-20T04:58:34.047Z,1002.17
2022-09-20T04:59:34.011Z,1002.18
2022-09-20T05:00:33.999Z,1002.15
2022-09-20T05:01:34.047Z,1002.18
2022-09-20T05:02:34.041Z,1002.20
2022-09-20T05:03:34.004Z,1002.17
2022-09-20T05:04:33.971Z,1002.20
2022-09-20T05:05:33.964Z,1002.17
2022-09-20T05:06:33.955Z,1002.16
2022-09-20T05:07:33.948Z,1002.22
2022-09-20T05:08:33.959Z,1002.23
2022-09-20T05:09:33.929Z,1002.27
2022-09-20T05:10:33.924Z,1002.22
2022-09-20T05:11:33.915Z,1002.24
2022-09-20T05:12:33.909Z,1002.24
2022-09-20T05:13:33.921Z,1002.27
2022-09-20T05:14:33.893Z,1002.23
2022-09-20T05:15:33.883Z,1002.26
2022-09-20T05:16:33.897Z,1002.28
2022-09-20T05:17:33.865Z,1002.28
2022-09-20T05:18:33.885Z,1002.31
2022-09-20T05:19:33.844Z,1002.28
2022-09-20T05:20:33.840Z,1002.28
2022-09-20T05:21:33.831Z,1002.30
2022-09-20T05:22:33.820Z,1002.29
2022-09-20T05:23:33.849Z,1002.33
2022-09-20T05:24:33.805Z,1002.33
2022-09-20T05:25:33.793Z,1002.33
2022-09-20T05:26:33.793Z,1002.32
2022-09-20T05:27:33.782Z,1002.36
2022-09-20T05:28:33.830Z,1002.34
2022-09-20T05:29:33.767Z,1002.34
2022-09-20T05:30:33.781Z,1002.31
2022-09-20T05:31:33.919Z,1002.29
2022-09-20T05:32:33.732Z,1002.34
2022-09-20T05:33:33.769Z,1002.32
2022-09-20T05:34:33.743Z,1002.38
2022-09-20T05:35:33.713Z,1002.32
2022-09-20T05:36:34.756Z,1002.40
2022-09-20T05:37:34.698Z,1002.39
2022-09-20T05:38:33.727Z,1002.45
2022-09-20T05:39:33.691Z,1002.43
2022-09-20T05:40:33.700Z,1002.47
2022-09-20T05:41:33.668Z,1002.46
2022-09-20T05:42:33.653Z,1002.50
2022-09-20T05:43:33.685Z,1002.47
2022-09-20T05:44:33.641Z,1002.56
2022-09-20T05:45:33.684Z,1002.59
2022-09-20T05:46:33.634Z,1002.55
2022-09-20T05:47:33.621Z,1002.55
2022-09-20T05:48:33.688Z,1002.53
2022-09-20T05:49:33.598Z,1002.53
2022-09-20T05:50:33.598Z,1002.44
2022-09-20T05:51:33.590Z,1002.42
2022-09-20T05:52:33.578Z,1002.43
2022-09-20T05:53:33.596Z,1002.47
2022-09-20T05:54:33.610Z,1002.49
2022-09-20T05:55:33.551Z,1002.57
2022-09-20T05:56:33.547Z,1002.50
2022-09-20T05:57:33.537Z,1002.51
2022-09-20T05:58:33.560Z,1002.50
2022-09-20T05:59:33.515Z,1002.63
2022-09-20T06:00:33.509Z,1002.54
2022-09-20T06:01:33.539Z,1002.58
2022-09-20T06:02:33.542Z,1002.59
2022-09-20T06:03:33.483Z,1002.59
2022-09-20T06:04:33.516Z,1002.64
2022-09-20T06:05:33.475Z,1002.58
2022-09-20T06:06:33.464Z,1002.63
2022-09-20T06:07:33.460Z,1002.67
2022-09-20T06:08:33.450Z,1002.71
2022-09-20T06:09:33.487Z,1002.65
2022-09-20T06:10:33.432Z,1002.65
2022-09-20T06:11:33.424Z,1002.69
2022-09-20T06:12:33.413Z,1002.66
2022-09-20T06:13:33.396Z,1002.69
2022-09-20T06:14:33.427Z,1002.71
2022-09-20T06:15:33.386Z,1002.68
2022-09-20T06:16:33.443Z,1002.67
2022-09-20T06:17:33.364Z,1002.73
2022-09-20T06:18:33.359Z,1002.63
2022-09-20T06:19:33.380Z,1002.74
2022-09-20T06:20:33.446Z,1002.69
2022-09-20T06:21:33.333Z,1002.68
2022-09-20T06:22:33.318Z,1002.71
2022-09-20T06:23:33.322Z,1002.69
2022-09-20T06:24:33.342Z,1002.68
2022-09-20T06:25:33.302Z,1002.70
2022-09-20T06:26:33.289Z,1002.71
2022-09-20T06:27:33.285Z,1002.73
2022-09-20T06:28:33.280Z,1002.71
2022-09-20T06:29:33.287Z,1002.72
2022-09-20T06:30:33.306Z,1002.72
2022-09-20T06:31:33.248Z,1002.78
2022-09-20T06:32:33.250Z,1002.77
2022-09-20T06:33:33.231Z,1002.77
2022-09-20T06:34:33.263Z,1002.83
2022-09-20T06:35:33.219Z,1002.73
2022-09-20T06:36:33.209Z,1002.78
2022-09-20T06:37:33.206Z,1002.76
2022-09-20T06:38:33.221Z,1002.75
2022-09-20T06:39:33.177Z,1002.77
2022-09-20T06:40:33.223Z,1002.75
2022-09-20T06:41:33.168Z,1002.79
2022-09-20T06:42:33.166Z,1002.79
2022-09-20T06:43:33.181Z,1002.81
2022-09-20T06:44:33.148Z,1002.80
2022-09-20T06:45:33.197Z,1002.79
2022-09-20T06:46:33.133Z,1002.77
2022-09-20T06:47:36.874Z,1002.76
2022-09-20T06:48:35.143Z,1002.82
2022-09-20T06:49:33.103Z,1002.85
2022-09-20T06:50:33.096Z,1002.85
2022-09-20T06:51:33.094Z,1002.81
2022-09-20T06:52:33.077Z,1002.85
2022-09-20T06:53:33.096Z,1002.86
2022-09-20T06:54:33.062Z,1002.85
2022-09-20T06:55:33.049Z,1002.86
2022-09-20T06:56:34.051Z,1002.88
2022-09-20T06:57:33.038Z,1002.89
2022-09-20T06:58:33.056Z,1002.88
2022-09-20T06:59:33.027Z,1002.91
2022-09-20T07:00:33.017Z,1002.90
2022-09-20T07:01:33.071Z,1002.89
2022-09-20T07:02:33.018Z,1002.94
2022-09-20T07:03:33.014Z,1002.92
2022-09-20T07:04:32.978Z,1002.86
2022-09-20T07:05:32.968Z,1002.92
2022-09-20T07:06:32.963Z,1002.93
2022-09-20T07:07:32.956Z,1002.92
2022-09-20T07:08:32.976Z,1002.90
2022-09-20T07:09:32.938Z,1002.97
2022-09-20T07:10:32.929Z,1002.94
2022-09-20T07:11:32.917Z,1002.91
2022-09-20T07:12:32.917Z,1002.98
2022-09-20T07:13:32.934Z,1002.96
2022-09-20T07:14:32.898Z,1003.01
2022-09-20T07:15:32.888Z,1003.04
2022-09-20T07:16:32.945Z,1003.03
2022-09-20T07:17:32.905Z,1003.02
2022-09-20T07:18:32.863Z,1003.01
2022-09-20T07:19:32.886Z,1003.06
2022-09-20T07:20:32.862Z,1002.99
2022-09-20T07:21:32.844Z,1003.05
2022-09-20T07:22:32.833Z,1003.06
2022-09-20T07:23:32.825Z,1003.03
2022-09-20T07:24:32.845Z,1003.05
2022-09-20T07:25:32.807Z,1003.00
2022-09-20T07:26:32.807Z,1002.99
2022-09-20T07:27:32.784Z,1003.02
2022-09-20T07:28:32.777Z,1003.05
2022-09-20T07:29:32.798Z,1003.07
2022-09-20T07:30:32.770Z,1003.06
2022-09-20T07:31:32.967Z,1003.05
2022-09-20T07:32:32.800Z,1002.99
2022-09-20T07:33:32.861Z,1003.08
2022-09-20T07:34:32.763Z,1003.05
2022-09-20T07:35:32.844Z,1003.03
2022-09-20T07:36:32.859Z,1003.05
2022-09-20T07:37:36.874Z,1003.02
2022-09-20T07:38:33.698Z,1002.98
2022-09-20T07:39:32.714Z,1003.02
2022-09-20T07:40:32.716Z,1003.08
2022-09-20T07:41:32.676Z,1003.08
2022-09-20T07:42:32.671Z,1003.06
2022-09-20T07:43:32.650Z,1003.13
2022-09-20T07:44:32.673Z,1003.13
2022-09-20T07:45:32.652Z,1003.16
2022-09-20T07:46:32.630Z,1003.12
2022-09-20T07:47:32.620Z,1003.09
2022-09-20T07:48:32.607Z,1003.07
2022-09-20T07:49:33.631Z,1003.08
2022-09-20T07:50:32.598Z,1003.11
2022-09-20T07:51:32.593Z,1003.07
2022-09-20T07:52:32.581Z,1003.09
2022-09-20T07:53:32.570Z,1003.12
2022-09-20T07:54:32.597Z,1003.13
2022-09-20T07:55:32.557Z,1003.16
2022-09-20T07:56:32.545Z,1003.21
2022-09-20T07:57:32.538Z,1003.25
2022-09-20T07:58:32.538Z,1003.21
2022-09-20T07:59:32.556Z,1003.21
2022-09-20T08:00:32.525Z,1003.25
2022-09-20T08:01:32.530Z,1003.19
2022-09-20T08:02:32.521Z,1003.28
2022-09-20T08:03:32.493Z,1003.22
2022-09-20T08:04:32.533Z,1003.29
2022-09-20T08:05:32.473Z,1003.30
2022-09-20T08:06:32.470Z,1003.33
2022-09-20T08:07:32.463Z,1003.30
2022-09-20T08:08:32.455Z,1003.36
2022-09-20T08:09:32.475Z,1003.33
2022-09-20T08:10:32.439Z,1003.39
2022-09-20T08:11:32.434Z,1003.32
2022-09-20T08:14:34.435Z,1003.43
2022-09-20T08:15:32.395Z,1003.41
2022-09-20T08:16:32.436Z,1003.34
2022-09-20T08:17:32.375Z,1003.37
2022-09-20T08:18:32.363Z,1003.46
2022-09-20T08:19:32.415Z,1003.42
2022-09-20T08:20:32.355Z,1003.41
2022-09-20T08:21:32.349Z,1003.41
2022-09-20T08:22:32.341Z,1003.43
2022-09-20T08:23:32.329Z,1003.45
2022-09-20T08:24:32.349Z,1003.39
2022-09-20T08:25:32.318Z,1003.42
2022-09-20T08:26:32.309Z,1003.39
2022-09-20T08:27:32.297Z,1003.44
2022-09-20T08:28:32.289Z,1003.46
2022-09-20T08:29:32.308Z,1003.51
2022-09-20T08:30:32.272Z,1003.51
2022-09-20T08:31:32.297Z,1003.54
2022-09-20T08:32:32.260Z,1003.48
2022-09-20T08:33:32.244Z,1003.48
2022-09-20T08:34:32.271Z,1003.53
2022-09-20T08:35:32.230Z,1003.43
2022-09-20T08:36:36.067Z,1003.51
2022-09-20T08:37:33.213Z,1003.47
2022-09-20T08:40:34.307Z,1003.44
2022-09-20T08:41:32.182Z,1003.54
2022-09-20T08:42:34.917Z,1003.52
2022-09-20T08:43:34.200Z,1003.53
2022-09-20T08:44:35.243Z,1003.54
2022-09-20T08:45:34.956Z,1003.50
2022-09-20T08:46:33.167Z,1003.48
2022-09-20T08:47:32.134Z,1003.51
2022-09-20T08:48:32.123Z,1003.57
2022-09-20T08:49:32.138Z,1003.60
2022-09-20T08:50:32.108Z,1003.56
2022-09-20T08:51:32.095Z,1003.57
2022-09-20T08:52:38.420Z,1003.54
2022-09-20T08:53:34.075Z,1003.55
2022-09-20T08:54:32.548Z,1003.52
2022-09-20T08:55:39.699Z,1003.61
2022-09-20T08:56:34.067Z,1003.59
2022-09-20T08:57:32.052Z,1003.54
2022-09-20T08:58:32.038Z,1003.55
2022-09-20T08:59:32.063Z,1003.58
2022-09-20T09:00:32.030Z,1003.58
2022-09-20T09:01:32.065Z,1003.60
2022-09-20T09:02:32.058Z,1003.60
2022-09-20T09:03:31.994Z,1003.57
2022-09-20T09:04:32.021Z,1003.53
2022-09-20T09:05:31.982Z,1003.52
2022-09-20T09:06:31.964Z,1003.52
2022-09-20T09:07:31.957Z,1003.54
2022-09-20T09:08:37.552Z,1003.56
2022-09-20T09:09:37.805Z,1003.59
2022-09-20T09:10:32.928Z,1003.63
2022-09-20T09:11:31.919Z,1003.61
2022-09-20T09:12:31.921Z,1003.60
2022-09-20T09:13:31.963Z,1003.56
2022-09-20T09:14:31.983Z,1003.59
2022-09-20T09:15:31.884Z,1003.55
2022-09-20T09:16:35.470Z,1003.64
2022-09-20T09:17:32.877Z,1003.63
2022-09-20T09:18:32.041Z,1003.63
2022-09-20T09:19:34.856Z,1003.60
2022-09-20T09:20:32.852Z,1003.66
2022-09-20T09:21:31.838Z,1003.66
2022-09-20T09:22:31.831Z,1003.62
2022-09-20T09:23:31.931Z,1003.64
2022-09-20T09:24:31.854Z,1003.66
2022-09-20T09:25:31.814Z,1003.65
2022-09-20T09:26:31.804Z,1003.58
2022-09-20T09:27:31.792Z,1003.61
2022-09-20T09:28:31.786Z,1003.65
2022-09-20T09:29:34.904Z,1003.61
2022-09-20T09:30:32.774Z,1003.62
2022-09-20T09:31:31.890Z,1003.61
2022-09-20T09:32:31.748Z,1003.61
2022-09-20T09:33:31.742Z,1003.56
2022-09-20T09:34:31.761Z,1003.57
2022-09-20T09:35:31.732Z,1003.57
2022-09-20T09:36:31.715Z,1003.53
2022-09-20T09:37:31.753Z,1003.51
2022-09-20T09:38:31.700Z,1003.63
2022-09-20T09:39:31.715Z,1003.55
2022-09-20T09:40:31.782Z,1003.65
2022-09-20T09:41:31.673Z,1003.57
2022-09-20T09:42:31.658Z,1003.58
2022-09-20T09:43:31.652Z,1003.57
2022-09-20T09:44:31.667Z,1003.60
2022-09-20T09:45:31.738Z,1003.62
2022-09-20T09:46:31.623Z,1003.60
2022-09-20T09:47:31.668Z,1003.60
2022-09-20T09:48:31.606Z,1003.57
2022-09-20T09:49:31.603Z,1003.64
2022-09-20T09:50:31.621Z,1003.59
2022-09-20T09:51:31.591Z,1003.55
2022-09-20T09:52:31.572Z,1003.57
2022-09-20T09:53:31.567Z,1003.55
2022-09-20T09:54:31.564Z,1003.58
2022-09-20T09:55:31.584Z,1003.59
2022-09-20T09:56:31.541Z,1003.57
2022-09-20T09:57:31.537Z,1003.59
2022-09-20T09:58:31.528Z,1003.56
2022-09-20T09:59:31.526Z,1003.58
2022-09-20T10:00:31.545Z,1003.55
2022-09-20T10:01:33.530Z,1003.59
2022-09-20T10:02:32.607Z,1003.60
2022-09-20T10:03:31.486Z,1003.56
2022-09-20T10:04:31.502Z,1003.54
2022-09-20T10:05:31.472Z,1003.53
2022-09-20T10:06:31.465Z,1003.48
2022-09-20T10:07:31.454Z,1003.56
2022-09-20T10:08:31.451Z,1003.47
2022-09-20T10:09:31.465Z,1003.50
2022-09-20T10:10:31.427Z,1003.49
2022-09-20T10:11:31.418Z,1003.47
2022-09-20T10:12:31.410Z,1003.52
2022-09-20T10:13:31.407Z,1003.49
2022-09-20T10:14:31.426Z,1003.47
2022-09-20T10:15:31.386Z,1003.53
2022-09-20T10:16:31.447Z,1003.54
2022-09-20T10:17:31.369Z,1003.54
2022-09-20T10:18:31.370Z,1003.53
2022-09-20T10:19:31.380Z,1003.59
2022-09-20T10:20:31.347Z,1003.55
2022-09-20T10:21:31.343Z,1003.49
2022-09-20T10:22:31.330Z,1003.47
2022-09-20T10:23:58.649Z,1003.51
2022-09-20T10:24:33.343Z,1003.48
2022-09-20T10:25:31.306Z,1003.40
2022-09-20T10:26:31.296Z,1003.39
2022-09-20T10:27:31.284Z,1003.46
2022-09-20T10:28:31.277Z,1003.42
2022-09-20T10:29:31.292Z,1003.46
2022-09-20T10:30:31.327Z,1003.42
2022-09-20T10:31:31.288Z,1003.34
2022-09-20T10:32:31.246Z,1003.36
2022-09-20T10:33:31.235Z,1003.33
2022-09-20T10:34:31.251Z,1003.34
2022-09-20T10:35:31.218Z,1003.30
2022-09-20T10:36:31.205Z,1003.34
2022-09-20T10:37:31.198Z,1003.36
2022-09-20T10:38:31.197Z,1003.26
2022-09-20T10:39:31.209Z,1003.33
2022-09-20T10:40:31.254Z,1003.29
2022-09-20T10:41:31.168Z,1003.26
2022-09-20T10:42:31.161Z,1003.30
2022-09-20T10:43:31.152Z,1003.30
2022-09-20T10:44:31.179Z,1003.27
2022-09-20T10:45:59.578Z,1003.34
2022-09-20T10:46:33.718Z,1003.34
2022-09-20T10:47:32.179Z,1003.32
2022-09-20T10:48:31.120Z,1003.31
2022-09-20T10:49:31.130Z,1003.31
2022-09-20T10:50:31.092Z,1003.30
2022-09-20T10:51:31.081Z,1003.33
2022-09-20T10:52:31.086Z,1003.30
2022-09-20T10:53:31.070Z,1003.36
2022-09-20T10:54:31.103Z,1003.32
2022-09-20T10:55:31.075Z,1003.25
2022-09-20T10:56:31.084Z,1003.28
2022-09-20T10:57:31.044Z,1003.29
2022-09-20T10:58:31.056Z,1003.32
2022-09-20T10:59:31.094Z,1003.32
2022-09-20T11:00:31.006Z,1003.31
2022-09-20T11:01:31.030Z,1003.30
2022-09-20T11:02:32.062Z,1003.25
2022-09-20T11:03:30.976Z,1003.37
2022-09-20T11:04:31.002Z,1003.40
2022-09-20T11:05:30.960Z,1003.37
2022-09-20T11:06:30.960Z,1003.39
2022-09-20T11:07:30.955Z,1003.32
2022-09-20T11:08:30.933Z,1003.41
2022-09-20T11:09:32.013Z,1003.30
2022-09-20T11:10:30.926Z,1003.38
2022-09-20T11:11:30.922Z,1003.30
2022-09-20T11:12:30.917Z,1003.25
2022-09-20T11:13:30.912Z,1003.39
2022-09-20T11:14:30.903Z,1003.35
2022-09-20T11:15:30.916Z,1003.31
2022-09-20T11:16:30.906Z,1003.40
2022-09-20T11:17:30.876Z,1003.36
2022-09-20T11:18:30.870Z,1003.32
2022-09-20T11:19:30.854Z,1003.37
2022-09-20T11:20:30.873Z,1003.38
2022-09-20T11:21:30.848Z,1003.42
2022-09-20T11:22:30.851Z,1003.48
2022-09-20T11:23:30.827Z,1003.43
2022-09-20T11:24:30.822Z,1003.41
2022-09-20T11:25:30.841Z,1003.42
2022-09-20T11:26:30.800Z,1003.43
2022-09-20T11:27:30.794Z,1003.60
2022-09-20T11:28:30.783Z,1003.53
2022-09-20T11:29:30.778Z,1003.50
2022-09-20T11:30:30.801Z,1003.57
2022-09-20T11:31:30.817Z,1003.59
2022-09-20T11:32:30.754Z,1003.54
2022-09-20T11:33:30.752Z,1003.55
2022-09-20T11:34:30.741Z,1003.53
2022-09-20T11:35:30.760Z,1003.53
2022-09-20T11:36:30.718Z,1003.54
2022-09-20T11:37:30.712Z,1003.52
2022-09-20T11:38:30.708Z,1003.51
2022-09-20T11:39:30.724Z,1003.53
2022-09-20T11:40:30.859Z,1003.48
2022-09-20T11:41:30.681Z,1003.44
2022-09-20T11:42:30.937Z,1003.45
2022-09-20T11:43:30.707Z,1003.42
2022-09-20T11:44:30.693Z,1003.48
2022-09-20T11:45:30.715Z,1003.47
2022-09-20T11:46:30.643Z,1003.42
2022-09-20T11:47:53.304Z,1003.43
2022-09-20T11:48:32.655Z,1003.46
2022-09-20T11:49:30.640Z,1003.43
2022-09-20T11:50:30.607Z,1003.41
2022-09-20T11:51:30.602Z,1003.36
2022-09-20T11:52:30.588Z,1003.39
2022-09-20T11:53:35.852Z,1003.41
2022-09-20T11:54:32.601Z,1003.42
2022-09-20T11:55:30.559Z,1003.38
2022-09-20T11:56:30.558Z,1003.34
2022-09-20T11:57:30.561Z,1003.34
2022-09-20T11:58:30.547Z,1003.37
2022-09-20T11:59:30.562Z,1003.35
2022-09-20T12:00:30.522Z,1003.34
2022-09-20T12:01:30.508Z,1003.34
2022-09-20T12:02:30.652Z,1003.31
2022-09-20T12:03:30.599Z,1003.28
2022-09-20T12:04:33.236Z,1003.28
2022-09-20T12:05:31.506Z,1003.30
2022-09-20T12:06:30.471Z,1003.26
2022-09-20T12:07:30.456Z,1003.31
2022-09-20T12:08:30.454Z,1003.33
2022-09-20T12:09:30.448Z,1003.28